createdAt,value
2017-12-17T00:00:24.464Z,34.60
2017-12-17T00:02:54.047Z,34.60
2017-12-17T00:05:24.054Z,35.10
2017-12-17T00:07:52.639Z,35.10
2017-12-17T00:10:21.233Z,35.10
2017-12-17T00:12:51.654Z,34.70
2017-12-17T00:15:20.855Z,34.90
2017-12-17T00:17:49.527Z,34.70
2017-12-17T00:20:26.464Z,34.40
2017-12-17T00:22:55.098Z,34.60
2017-12-17T00:25:23.880Z,34.70
2017-12-17T00:27:53.098Z,34.70
2017-12-17T00:30:21.614Z,34.70
2017-12-17T00:32:50.959Z,34.10
2017-12-17T00:35:19.446Z,34.00
2017-12-17T00:37:48.021Z,33.80
2017-12-17T00:40:29.516Z,33.90
2017-12-17T00:42:57.987Z,33.70
2017-12-17T00:45:26.474Z,33.20
2017-12-17T00:47:54.874Z,33.50
2017-12-17T00:50:23.328Z,32.70
2017-12-17T00:52:51.823Z,32.60
2017-12-17T00:55:20.955Z,32.50
2017-12-17T00:57:49.594Z,32.70
2017-12-17T01:00:21.654Z,33.50
2017-12-17T01:02:51.472Z,32.80
2017-12-17T01:05:19.962Z,32.80
2017-12-17T01:07:48.407Z,32.70
2017-12-17T01:10:16.910Z,32.60
2017-12-17T01:12:45.495Z,32.60
2017-12-17T01:15:20.214Z,32.40
2017-12-17T01:17:49.831Z,32.80
2017-12-17T01:20:18.335Z,33.20
2017-12-17T01:22:53.486Z,33.40
2017-12-17T01:25:28.182Z,33.30
2017-12-17T01:27:56.757Z,33.20
2017-12-17T01:30:25.472Z,33.00
2017-12-17T01:32:53.925Z,33.40
2017-12-17T01:35:29.943Z,33.50
2017-12-17T01:38:12.241Z,32.00
2017-12-17T01:40:41.690Z,31.80
2017-12-17T01:43:10.372Z,31.70
2017-12-17T01:45:38.924Z,31.10
2017-12-17T01:48:11.996Z,30.20
2017-12-17T01:50:41.892Z,31.50
2017-12-17T01:53:10.445Z,31.40
2017-12-17T01:55:39.232Z,30.40
2017-12-17T01:58:10.777Z,30.90
2017-12-17T02:00:39.205Z,32.00
2017-12-17T02:03:15.343Z,31.90
2017-12-17T02:05:43.904Z,31.90
2017-12-17T02:08:12.396Z,31.20
2017-12-17T02:10:40.967Z,31.00
2017-12-17T02:13:09.753Z,31.30
2017-12-17T02:15:44.345Z,31.60
2017-12-17T02:18:15.663Z,32.50
2017-12-17T02:20:45.750Z,32.70
2017-12-17T02:23:14.246Z,32.70
2017-12-17T02:25:42.809Z,32.80
2017-12-17T02:28:17.339Z,33.00
2017-12-17T02:30:49.887Z,33.00
2017-12-17T02:33:18.504Z,33.20
2017-12-17T02:35:54.994Z,33.50
2017-12-17T02:38:23.539Z,33.50
2017-12-17T02:40:53.149Z,33.60
2017-12-17T02:43:28.900Z,33.80
2017-12-17T02:46:03.047Z,34.30
2017-12-17T02:48:31.832Z,34.40
2017-12-17T02:51:00.951Z,34.80
2017-12-17T02:53:30.446Z,35.00
2017-12-17T02:55:59.087Z,35.00
2017-12-17T02:58:35.260Z,35.20
2017-12-17T03:01:03.751Z,36.20
2017-12-17T03:03:32.270Z,37.30
2017-12-17T03:06:04.588Z,36.80
2017-12-17T03:08:33.138Z,36.70
2017-12-17T03:11:02.421Z,36.40
2017-12-17T03:13:31.668Z,36.10
2017-12-17T03:16:13.562Z,35.30
2017-12-17T03:18:42.253Z,35.50
2017-12-17T03:21:10.825Z,36.90
2017-12-17T03:23:39.433Z,37.00
2017-12-17T03:26:14.557Z,37.50
2017-12-17T03:28:43.145Z,37.90
2017-12-17T03:31:11.713Z,37.40
2017-12-17T03:33:40.293Z,37.30
2017-12-17T03:36:10.110Z,36.70
2017-12-17T03:38:40.492Z,38.00
2017-12-17T03:41:09.727Z,36.90
2017-12-17T03:43:38.288Z,36.90
2017-12-17T03:46:07.681Z,36.20
2017-12-17T03:48:37.016Z,36.60
2017-12-17T03:51:05.435Z,36.50
2017-12-17T03:53:33.977Z,36.70
2017-12-17T03:56:04.091Z,36.40
2017-12-17T03:58:32.628Z,36.60
2017-12-17T04:01:01.223Z,36.50
2017-12-17T04:03:30.567Z,37.30
2017-12-17T04:06:14.703Z,37.20
2017-12-17T04:08:50.102Z,37.30
2017-12-17T04:11:19.301Z,37.80
2017-12-17T04:13:49.370Z,38.30
2017-12-17T04:16:21.706Z,38.30
2017-12-17T04:18:50.220Z,38.70
2017-12-17T04:21:18.711Z,39.40
2017-12-17T04:23:47.285Z,39.20
2017-12-17T04:26:15.816Z,39.50
2017-12-17T04:28:45.940Z,40.20
2017-12-17T04:31:14.648Z,40.10
2017-12-17T04:33:43.974Z,40.30
2017-12-17T04:36:12.454Z,40.30
2017-12-17T04:38:47.084Z,40.90
2017-12-17T04:41:15.662Z,41.10
2017-12-17T04:43:44.159Z,41.60
2017-12-17T04:46:20.927Z,42.20
2017-12-17T04:48:49.354Z,42.30
2017-12-17T04:51:24.025Z,41.90
2017-12-17T04:53:52.612Z,42.70
2017-12-17T04:56:21.435Z,43.50
2017-12-17T04:58:51.193Z,44.60
2017-12-17T05:01:19.796Z,44.20
2017-12-17T05:03:48.274Z,45.50
2017-12-17T05:06:18.194Z,45.40
2017-12-17T05:08:46.775Z,44.40
2017-12-17T05:11:15.286Z,44.80
2017-12-17T05:13:43.937Z,45.50
2017-12-17T05:16:27.278Z,46.10
2017-12-17T05:18:55.741Z,46.60
2017-12-17T05:21:24.432Z,47.10
2017-12-17T05:23:53.836Z,47.60
2017-12-17T05:26:22.263Z,47.90
2017-12-17T05:28:50.793Z,48.20
2017-12-17T05:31:19.429Z,49.20
2017-12-17T05:33:47.929Z,49.00
2017-12-17T05:36:17.262Z,49.20
2017-12-17T05:38:45.643Z,49.20
2017-12-17T05:41:14.326Z,49.60
2017-12-17T05:43:42.734Z,49.70
2017-12-17T05:46:11.688Z,49.20
2017-12-17T05:48:40.385Z,47.30
2017-12-17T05:51:15.931Z,47.50
2017-12-17T05:53:44.406Z,47.10
2017-12-17T05:56:13.193Z,46.60
2017-12-17T05:58:41.675Z,46.00
2017-12-17T06:01:10.853Z,46.10
2017-12-17T06:03:40.070Z,46.80
2017-12-17T06:06:08.656Z,47.20
2017-12-17T06:08:37.142Z,46.90
2017-12-17T06:11:05.722Z,46.60
2017-12-17T06:13:34.169Z,47.10
2017-12-17T06:16:03.415Z,48.20
2017-12-17T06:18:31.905Z,48.10
2017-12-17T06:21:00.367Z,46.40
2017-12-17T06:23:28.943Z,46.00
2017-12-17T06:25:57.628Z,49.30
2017-12-17T06:28:27.992Z,48.00
2017-12-17T06:30:57.027Z,47.20
2017-12-17T06:33:26.077Z,46.50
2017-12-17T06:36:00.997Z,46.20
2017-12-17T06:38:29.663Z,47.00
2017-12-17T06:40:58.250Z,46.30
2017-12-17T06:43:26.828Z,45.30
2017-12-17T06:45:55.513Z,45.90
2017-12-17T06:48:25.427Z,46.70
2017-12-17T06:50:56.159Z,46.20
2017-12-17T06:53:28.735Z,46.00
2017-12-17T06:55:57.684Z,46.20
2017-12-17T06:58:26.954Z,48.10
2017-12-17T07:00:55.558Z,48.00
2017-12-17T07:03:25.578Z,46.00
2017-12-17T07:05:54.070Z,46.00
2017-12-17T07:08:23.407Z,45.20
2017-12-17T07:10:52.071Z,45.20
2017-12-17T07:13:23.679Z,46.00
2017-12-17T07:15:52.886Z,46.00
2017-12-17T07:18:35.111Z,44.30
2017-12-17T07:21:18.426Z,44.00
2017-12-17T07:23:47.781Z,44.50
2017-12-17T07:26:16.312Z,44.50
2017-12-17T07:28:45.667Z,44.70
2017-12-17T07:31:14.248Z,44.60
2017-12-17T07:33:42.828Z,43.60
2017-12-17T07:36:13.259Z,42.90
2017-12-17T07:38:43.121Z,42.30
2017-12-17T07:41:11.998Z,40.40
2017-12-17T07:43:42.181Z,37.70
2017-12-17T07:46:19.579Z,37.60
2017-12-17T07:48:54.708Z,37.60
2017-12-17T07:51:23.525Z,35.10
2017-12-17T07:54:07.050Z,34.30
2017-12-17T07:56:37.008Z,33.10
2017-12-17T07:59:06.243Z,33.10
2017-12-17T08:01:34.832Z,32.90
2017-12-17T08:04:03.414Z,31.50
2017-12-17T08:06:32.720Z,30.80
2017-12-17T08:09:02.031Z,32.80
2017-12-17T08:11:30.800Z,32.80
2017-12-17T08:13:59.378Z,32.20
2017-12-17T08:16:28.559Z,29.30
2017-12-17T08:18:57.262Z,29.10
2017-12-17T08:21:32.603Z,28.30
2017-12-17T08:24:01.186Z,28.60
2017-12-17T08:26:29.711Z,28.00
2017-12-17T08:28:58.256Z,27.50
2017-12-17T08:31:26.831Z,27.00
2017-12-17T08:33:56.753Z,27.30
2017-12-17T08:36:46.273Z,27.50
2017-12-17T08:39:15.233Z,27.90
2017-12-17T08:41:48.099Z,27.00
2017-12-17T08:44:25.971Z,26.20
2017-12-17T08:46:54.693Z,26.30
2017-12-17T08:49:23.169Z,25.70
2017-12-17T08:51:51.582Z,25.10
2017-12-17T08:54:21.666Z,25.00
2017-12-17T08:56:50.252Z,25.80
2017-12-17T08:59:18.946Z,25.50
2017-12-17T09:01:47.328Z,26.20
2017-12-17T09:04:15.892Z,25.80
2017-12-17T09:06:47.759Z,25.80
2017-12-17T09:09:16.514Z,25.40
2017-12-17T09:11:49.881Z,26.00
2017-12-17T09:14:18.622Z,27.20
2017-12-17T09:16:47.930Z,27.80
2017-12-17T09:19:16.358Z,26.40
2017-12-17T09:21:44.987Z,25.70
2017-12-17T09:24:14.085Z,24.70
2017-12-17T09:26:50.657Z,26.30
2017-12-17T09:29:23.399Z,24.20
2017-12-17T09:31:52.641Z,24.20
2017-12-17T09:34:21.221Z,24.20
2017-12-17T09:36:49.736Z,22.10
2017-12-17T09:39:18.225Z,21.20
2017-12-17T09:42:00.285Z,21.20
2017-12-17T09:44:37.022Z,19.70
2017-12-17T09:47:05.636Z,20.00
2017-12-17T09:49:34.090Z,19.20
2017-12-17T09:52:03.468Z,19.00
2017-12-17T09:54:32.115Z,19.00
2017-12-17T09:57:02.684Z,19.20
2017-12-17T09:59:34.298Z,20.60
2017-12-17T10:02:03.905Z,21.00
2017-12-17T10:04:33.827Z,20.40
2017-12-17T10:07:03.545Z,19.90
2017-12-17T10:09:32.411Z,21.50
2017-12-17T10:12:02.508Z,24.20
2017-12-17T10:14:32.083Z,28.50
2017-12-17T10:17:01.660Z,25.20
2017-12-17T10:19:31.186Z,33.50
2017-12-17T10:22:01.520Z,32.20
2017-12-17T10:24:30.244Z,32.10
2017-12-17T10:26:58.705Z,32.10
2017-12-17T10:29:28.000Z,29.60
2017-12-17T10:32:03.432Z,28.90
2017-12-17T10:34:33.567Z,28.00
2017-12-17T10:37:03.003Z,27.50
2017-12-17T10:39:31.495Z,27.50
2017-12-17T10:42:00.177Z,27.30
2017-12-17T10:44:29.633Z,26.60
2017-12-17T10:46:58.987Z,25.90
2017-12-17T10:49:27.445Z,25.90
2017-12-17T10:51:55.946Z,25.90
2017-12-17T10:54:27.560Z,24.70
2017-12-17T10:56:56.929Z,24.50
2017-12-17T10:59:26.300Z,24.70
2017-12-17T11:01:54.903Z,24.70
2017-12-17T11:04:23.466Z,24.70
2017-12-17T11:06:52.723Z,24.20
2017-12-17T11:09:22.063Z,26.30
2017-12-17T11:11:50.851Z,26.20
2017-12-17T11:14:19.476Z,24.40
2017-12-17T11:16:48.052Z,25.90
2017-12-17T11:19:16.487Z,26.60
2017-12-17T11:21:58.187Z,25.60
2017-12-17T11:24:32.694Z,23.40
2017-12-17T11:27:01.396Z,25.20
2017-12-17T11:29:30.538Z,26.20
2017-12-17T11:32:01.683Z,25.80
2017-12-17T11:34:33.070Z,28.00
2017-12-17T11:37:01.730Z,28.00
2017-12-17T11:39:37.160Z,33.10
2017-12-17T11:42:05.734Z,33.30
2017-12-17T11:44:34.241Z,31.60
2017-12-17T11:47:03.552Z,28.80
2017-12-17T11:49:33.675Z,28.70
2017-12-17T11:52:02.284Z,29.80
2017-12-17T11:54:30.784Z,27.60
2017-12-17T11:56:59.350Z,29.00
2017-12-17T11:59:27.928Z,31.60
2017-12-17T12:01:56.606Z,30.50
2017-12-17T12:04:26.525Z,34.30
2017-12-17T12:06:55.142Z,34.40
2017-12-17T12:09:25.168Z,34.80
2017-12-17T12:11:54.435Z,36.90
2017-12-17T12:14:24.271Z,36.80
2017-12-17T12:16:52.924Z,34.50
2017-12-17T12:19:21.554Z,33.70
2017-12-17T12:21:51.837Z,35.80
2017-12-17T12:24:22.165Z,34.00
2017-12-17T12:26:50.938Z,34.00
2017-12-17T12:29:32.618Z,35.10
2017-12-17T12:32:01.193Z,36.40
2017-12-17T12:34:29.846Z,35.00
2017-12-17T12:37:06.190Z,33.20
2017-12-17T12:39:35.146Z,33.10
2017-12-17T12:42:03.859Z,31.20
2017-12-17T12:44:44.729Z,31.40
2017-12-17T12:47:20.715Z,32.40
2017-12-17T12:49:50.960Z,31.40
2017-12-17T12:52:19.690Z,31.40
2017-12-17T12:54:48.575Z,31.20
2017-12-17T12:57:25.873Z,33.30
2017-12-17T12:59:55.051Z,32.60
2017-12-17T13:02:24.517Z,33.40
2017-12-17T13:04:54.406Z,32.80
2017-12-17T13:07:23.121Z,32.90
2017-12-17T13:09:52.634Z,35.00
2017-12-17T13:12:22.050Z,35.90
2017-12-17T13:14:50.634Z,35.90
2017-12-17T13:17:19.501Z,34.70
2017-12-17T13:19:58.174Z,33.30
2017-12-17T13:22:26.869Z,33.20
2017-12-17T13:24:55.652Z,30.60
2017-12-17T13:27:24.294Z,29.50
2017-12-17T13:29:53.256Z,31.80
2017-12-17T13:32:24.059Z,29.60
2017-12-17T13:34:59.822Z,28.00
2017-12-17T13:37:28.460Z,28.00
2017-12-17T13:39:57.186Z,28.80
2017-12-17T13:42:25.838Z,30.30
2017-12-17T13:44:54.756Z,29.20
2017-12-17T13:47:24.157Z,26.50
2017-12-17T13:49:57.903Z,25.90
2017-12-17T13:52:27.234Z,23.20
2017-12-17T13:55:02.781Z,23.20
2017-12-17T13:57:32.523Z,21.90
2017-12-17T14:00:04.586Z,20.90
2017-12-17T14:02:33.271Z,21.20
2017-12-17T14:05:01.834Z,22.40
2017-12-17T14:07:30.645Z,22.00
2017-12-17T14:09:59.428Z,22.00
2017-12-17T14:12:28.319Z,21.70
2017-12-17T14:14:57.473Z,21.60
2017-12-17T14:17:26.600Z,21.20
2017-12-17T14:20:02.494Z,21.30
2017-12-17T14:22:32.396Z,21.70
2017-12-17T14:25:02.839Z,23.00
2017-12-17T14:27:39.194Z,22.00
2017-12-17T14:30:08.762Z,22.00
2017-12-17T14:32:41.536Z,20.60
2017-12-17T14:35:11.380Z,20.90
2017-12-17T14:37:41.805Z,20.70
2017-12-17T14:40:12.976Z,20.70
2017-12-17T14:42:42.863Z,21.10
2017-12-17T14:45:11.544Z,21.60
2017-12-17T14:47:40.066Z,21.10
2017-12-17T14:50:08.702Z,20.50
2017-12-17T14:52:37.389Z,20.70
2017-12-17T14:55:06.788Z,21.30
2017-12-17T14:57:41.348Z,22.00
2017-12-17T15:00:10.040Z,23.40
2017-12-17T15:02:40.276Z,22.00
2017-12-17T15:05:12.878Z,20.80
2017-12-17T15:07:42.208Z,20.50
2017-12-17T15:10:10.791Z,20.50
2017-12-17T15:12:40.113Z,23.00
2017-12-17T15:15:08.605Z,22.90
2017-12-17T15:17:38.633Z,22.70
2017-12-17T15:20:13.227Z,22.70
2017-12-17T15:22:41.696Z,22.50
2017-12-17T15:25:10.410Z,23.40
2017-12-17T15:27:39.797Z,23.10
2017-12-17T15:30:08.463Z,23.10
2017-12-17T15:32:37.588Z,22.30
2017-12-17T15:35:08.410Z,22.00
2017-12-17T15:37:36.947Z,22.00
2017-12-17T15:40:06.276Z,22.10
2017-12-17T15:42:35.494Z,22.30
2017-12-17T15:45:05.694Z,22.70
2017-12-17T15:47:34.801Z,22.70
2017-12-17T15:50:03.479Z,23.30
2017-12-17T15:52:32.166Z,23.90
2017-12-17T15:55:01.777Z,25.30
2017-12-17T15:57:30.783Z,25.20
2017-12-17T16:00:00.653Z,26.10
2017-12-17T16:02:29.523Z,27.10
2017-12-17T16:05:09.413Z,28.00
2017-12-17T16:07:39.658Z,28.00
2017-12-17T16:10:08.266Z,28.80
2017-12-17T16:12:38.341Z,29.80
2017-12-17T16:15:06.846Z,29.70
2017-12-17T16:17:35.195Z,29.60
2017-12-17T16:20:03.766Z,29.90
2017-12-17T16:22:32.460Z,29.50
2017-12-17T16:25:08.526Z,29.40
2017-12-17T16:27:37.456Z,30.50
2017-12-17T16:30:06.107Z,32.60
2017-12-17T16:32:34.601Z,33.80
2017-12-17T16:35:03.164Z,33.50
2017-12-17T16:37:31.532Z,34.30
2017-12-17T16:40:00.068Z,36.00
2017-12-17T16:42:30.175Z,35.50
2017-12-17T16:44:58.634Z,36.40
2017-12-17T16:47:28.432Z,37.40
2017-12-17T16:49:58.251Z,37.60
2017-12-17T16:52:26.898Z,38.70
2017-12-17T16:54:55.421Z,39.10
2017-12-17T16:57:24.509Z,39.90
2017-12-17T16:59:53.095Z,40.50
2017-12-17T17:02:27.715Z,39.90
2017-12-17T17:04:56.885Z,40.80
2017-12-17T17:07:26.159Z,41.70
2017-12-17T17:10:00.840Z,41.70
2017-12-17T17:12:40.442Z,41.80
2017-12-17T17:15:18.216Z,41.20
2017-12-17T17:17:47.183Z,41.10
2017-12-17T17:20:15.756Z,42.00
2017-12-17T17:22:52.350Z,40.80
2017-12-17T17:25:22.260Z,40.40
2017-12-17T17:27:59.900Z,40.30
2017-12-17T17:30:29.413Z,40.00
2017-12-17T17:33:04.594Z,39.50
2017-12-17T17:35:41.076Z,39.00
2017-12-17T17:38:09.632Z,38.00
2017-12-17T17:40:38.227Z,37.40
2017-12-17T17:43:06.959Z,36.90
2017-12-17T17:45:35.937Z,36.80
2017-12-17T17:48:10.701Z,36.70
2017-12-17T17:50:46.270Z,36.10
2017-12-17T17:53:16.616Z,36.20
2017-12-17T17:55:49.677Z,35.70
2017-12-17T17:58:19.546Z,35.90
2017-12-17T18:00:49.425Z,36.30
2017-12-17T18:03:26.138Z,36.60
2017-12-17T18:05:56.475Z,36.40
2017-12-17T18:08:25.920Z,36.30
2017-12-17T18:10:54.390Z,35.70
2017-12-17T18:13:22.922Z,36.30
2017-12-17T18:15:52.126Z,36.80
2017-12-17T18:18:21.577Z,36.80
2017-12-17T18:20:50.161Z,37.10
2017-12-17T18:23:18.637Z,36.30
2017-12-17T18:25:47.118Z,37.70
2017-12-17T18:28:22.180Z,37.70
2017-12-17T18:30:50.691Z,38.20
2017-12-17T18:33:19.923Z,40.50
2017-12-17T18:35:48.415Z,40.00
2017-12-17T18:38:16.898Z,40.30
2017-12-17T18:40:46.617Z,40.60
2017-12-17T18:43:28.609Z,41.30
2017-12-17T18:45:57.339Z,42.00
2017-12-17T18:48:26.643Z,41.30
2017-12-17T18:50:55.632Z,41.20
2017-12-17T18:53:26.568Z,40.30
2017-12-17T18:55:55.274Z,40.50
2017-12-17T18:58:24.492Z,41.40
2017-12-17T19:00:53.024Z,41.40
2017-12-17T19:03:30.281Z,41.10
2017-12-17T19:05:58.707Z,41.10
2017-12-17T19:08:37.380Z,41.20
2017-12-17T19:11:05.891Z,41.50
2017-12-17T19:13:34.382Z,42.00
2017-12-17T19:16:07.034Z,42.50
2017-12-17T19:18:35.765Z,42.50
2017-12-17T19:21:05.057Z,42.60
2017-12-17T19:23:34.261Z,42.90
2017-12-17T19:26:03.920Z,41.80
2017-12-17T19:28:33.930Z,42.80
2017-12-17T19:31:04.154Z,42.70
2017-12-17T19:33:32.830Z,42.30
2017-12-17T19:36:02.235Z,42.80
2017-12-17T19:38:39.073Z,42.60
2017-12-17T19:41:08.217Z,41.80
2017-12-17T19:43:37.151Z,41.80
2017-12-17T19:46:06.290Z,41.70
2017-12-17T19:48:35.620Z,42.50
2017-12-17T19:51:05.375Z,42.50
2017-12-17T19:53:34.543Z,43.60
2017-12-17T19:56:04.189Z,43.60
2017-12-17T19:58:33.192Z,43.80
2017-12-17T20:01:03.257Z,44.10
2017-12-17T20:03:31.814Z,44.40
2017-12-17T20:06:01.625Z,44.40
2017-12-17T20:08:31.474Z,44.40
2017-12-17T20:11:02.179Z,43.10
2017-12-17T20:13:31.141Z,43.00
2017-12-17T20:15:59.842Z,44.20
2017-12-17T20:18:30.166Z,45.30
2017-12-17T20:21:01.371Z,45.90
2017-12-17T20:23:30.055Z,45.90
2017-12-17T20:26:00.799Z,46.90
2017-12-17T20:28:30.221Z,47.00
2017-12-17T20:30:59.306Z,47.00
2017-12-17T20:33:27.819Z,47.50
2017-12-17T20:35:56.472Z,48.20
2017-12-17T20:38:24.886Z,48.40
2017-12-17T20:40:53.317Z,48.70
2017-12-17T20:43:22.625Z,49.30
2017-12-17T20:46:02.194Z,49.20
2017-12-17T20:48:30.731Z,49.40
2017-12-17T20:51:00.579Z,49.80
2017-12-17T20:53:29.398Z,49.90
2017-12-17T20:56:04.458Z,50.00
2017-12-17T21:01:09.909Z,50.50
2017-12-17T21:03:39.396Z,50.50
2017-12-17T21:06:09.566Z,50.80
2017-12-17T21:08:37.998Z,51.20
2017-12-17T21:11:11.024Z,51.40
2017-12-17T21:13:40.028Z,52.00
2017-12-17T21:16:09.885Z,52.30
2017-12-17T21:18:46.558Z,52.30
2017-12-17T21:21:16.267Z,51.40
2017-12-17T21:23:45.859Z,51.20
2017-12-17T21:26:22.424Z,51.10
2017-12-17T21:28:51.599Z,51.50
2017-12-17T21:31:20.526Z,51.70
2017-12-17T21:33:49.517Z,52.20
2017-12-17T21:36:18.369Z,52.50
2017-12-17T21:38:55.013Z,53.10
2017-12-17T21:41:24.272Z,53.40
2017-12-17T21:43:52.752Z,53.40
2017-12-17T21:46:22.049Z,54.10
2017-12-17T21:48:50.667Z,54.00
2017-12-17T21:51:20.798Z,54.10
2017-12-17T21:53:49.376Z,54.00
2017-12-17T21:56:18.028Z,54.20
2017-12-17T21:58:47.409Z,54.00
2017-12-17T22:01:29.320Z,54.00
2017-12-17T22:03:57.911Z,54.10
2017-12-17T22:06:26.289Z,53.50
2017-12-17T22:08:54.988Z,53.50
2017-12-17T22:11:23.291Z,53.20
2017-12-17T22:13:52.860Z,53.10
2017-12-17T22:16:27.927Z,52.70
2017-12-17T22:18:57.594Z,52.70
2017-12-17T22:21:26.175Z,52.70
2017-12-17T22:23:54.696Z,52.60
2017-12-17T22:26:24.018Z,52.20
2017-12-17T22:28:53.458Z,52.50
2017-12-17T22:31:21.997Z,51.80
2017-12-17T22:33:51.235Z,50.30
2017-12-17T22:36:20.382Z,50.30
2017-12-17T22:38:51.584Z,49.90
2017-12-17T22:41:20.463Z,49.90
2017-12-17T22:43:51.149Z,49.50
2017-12-17T22:46:21.632Z,49.20
2017-12-17T22:48:50.217Z,49.20
2017-12-17T22:51:19.843Z,48.90
2017-12-17T22:53:49.021Z,48.90
2017-12-17T22:56:18.119Z,49.00
2017-12-17T22:58:47.033Z,49.60
2017-12-17T23:01:17.073Z,50.10
2017-12-17T23:03:45.613Z,49.50
2017-12-17T23:06:16.038Z,49.20
2017-12-17T23:08:46.167Z,49.50
2017-12-17T23:11:14.731Z,48.00
2017-12-17T23:13:43.326Z,48.30
2017-12-17T23:16:11.903Z,49.10
2017-12-17T23:18:40.654Z,46.50
2017-12-17T23:21:11.217Z,48.40
2017-12-17T23:23:40.003Z,48.40
2017-12-17T23:26:10.194Z,50.00
2017-12-17T23:28:40.145Z,49.10
2017-12-17T23:31:08.601Z,49.00
2017-12-17T23:33:38.707Z,47.30
2017-12-17T23:36:07.883Z,48.00
2017-12-17T23:38:37.880Z,48.60
2017-12-17T23:41:06.386Z,48.50
2017-12-17T23:43:34.832Z,47.90
2017-12-17T23:46:03.347Z,48.50
2017-12-17T23:48:31.877Z,48.90
2017-12-17T23:51:00.305Z,48.80
2017-12-17T23:53:29.610Z,46.60
2017-12-17T23:55:58.854Z,48.00
2017-12-17T23:58:27.439Z,48.00
